sensor_id;sensor_type;location;lat;lon;timestamp;pressure;altitude;pressure_sealevel;temperature;humidity
9281;BME280;4679;47.966;7.958;2024-02-26T07:15:20;95266.78;;;6.42;79.05
9281;BME280;4679;47.966;7.958;2024-02-26T07:17:21;95276.81;;;6.40;78.36
9281;BME280;4679;47.966;7.958;2024-02-26T07:19:23;95272.34;;;6.41;78.28
9281;BME280;4679;47.966;7.958;2024-02-26T07:21:24;95274.44;;;6.44;79.00
9281;BME280;4679;47.966;7.958;2024-02-26T07:23:26;95272.31;;;6.46;79.13
9281;BME280;4679;47.966;7.958;2024-02-26T07:25:27;95272.84;;;6.48;78.55
9281;BME280;4679;47.966;7.958;2024-02-26T07:27:29;95274.97;;;6.51;78.28
9281;BME280;4679;47.966;7.958;2024-02-26T07:29:30;95275.75;;;6.51;78.27
9281;BME280;4679;47.966;7.958;2024-02-26T07:31:33;95278.13;;;6.53;79.34
9281;BME280;4679;47.966;7.958;2024-02-26T07:33:34;95279.72;;;6.54;79.07
9281;BME280;4679;47.966;7.958;2024-02-26T07:35:36;95284.47;;;6.57;79.10
9281;BME280;4679;47.966;7.958;2024-02-26T07:37:39;95277.59;;;6.61;78.32
9281;BME280;4679;47.966;7.958;2024-02-26T07:39:40;95278.41;;;6.66;78.28
9281;BME280;4679;47.966;7.958;2024-02-26T07:41:42;95278.13;;;6.73;77.95
9281;BME280;4679;47.966;7.958;2024-02-26T07:43:47;95279.44;;;6.81;78.78
9281;BME280;4679;47.966;7.958;2024-02-26T07:45:49;95269.41;;;6.88;78.99
9281;BME280;4679;47.966;7.958;2024-02-26T07:47:51;95277.06;;;6.94;78.08
9281;BME280;4679;47.966;7.958;2024-02-26T07:49:53;95280.22;;;6.96;78.08
9281;BME280;4679;47.966;7.958;2024-02-26T07:51:55;95284.19;;;6.99;77.81
9281;BME280;4679;47.966;7.958;2024-02-26T07:53:58;95284.94;;;7.04;77.89
9281;BME280;4679;47.966;7.958;2024-02-26T07:56:00;95286.28;;;7.07;77.58
9281;BME280;4679;47.966;7.958;2024-02-26T07:58:01;95285.75;;;7.10;77.95
9281;BME280;4679;47.966;7.958;2024-02-26T08:00:03;95281.00;;;7.12;77.86
9281;BME280;4679;47.966;7.958;2024-02-26T08:02:07;95268.59;;;7.13;77.75
9281;BME280;4679;47.966;7.958;2024-02-26T08:04:10;95274.66;;;7.13;77.87
9281;BME280;4679;47.966;7.958;2024-02-26T08:06:12;95281.25;;;7.16;77.82
9281;BME280;4679;47.966;7.958;2024-02-26T08:08:14;95279.38;;;7.21;78.06
9281;BME280;4679;47.966;7.958;2024-02-26T08:10:15;95281.50;;;7.24;78.03
9281;BME280;4679;47.966;7.958;2024-02-26T08:12:17;95273.31;;;7.31;78.20
9281;BME280;4679;47.966;7.958;2024-02-26T08:14:19;95275.66;;;7.43;77.70
9281;BME280;4679;47.966;7.958;2024-02-26T08:16:21;95271.59;;;7.70;77.29
9281;BME280;4679;47.966;7.958;2024-02-26T08:18:23;95269.66;;;7.86;76.83
9281;BME280;4679;47.966;7.958;2024-02-26T08:20:25;95270.91;;;8.04;76.60
9281;BME280;4679;47.966;7.958;2024-02-26T08:22:28;95262.34;;;8.17;76.49
9281;BME280;4679;47.966;7.958;2024-02-26T08:24:28;95269.22;;;8.18;76.50
9281;BME280;4679;47.966;7.958;2024-02-26T08:26:30;95263.94;;;8.18;76.82
9281;BME280;4679;47.966;7.958;2024-02-26T08:28:31;95259.19;;;8.20;76.72
9281;BME280;4679;47.966;7.958;2024-02-26T08:30:33;95254.16;;;8.24;76.70
9281;BME280;4679;47.966;7.958;2024-02-26T08:32:35;95259.91;;;8.26;76.85
9281;BME280;4679;47.966;7.958;2024-02-26T08:34:37;95253.81;;;8.30;76.89
9281;BME280;4679;47.966;7.958;2024-02-26T08:36:39;95248.25;;;8.37;76.61
9281;BME280;4679;47.966;7.958;2024-02-26T08:38:40;95251.13;;;8.40;76.65
9281;BME280;4679;47.966;7.958;2024-02-26T08:40:42;95269.09;;;8.43;76.79
9281;BME280;4679;47.966;7.958;2024-02-26T08:42:43;95270.13;;;8.48;76.46
9281;BME280;4679;47.966;7.958;2024-02-26T08:44:45;95279.06;;;8.52;76.66
9281;BME280;4679;47.966;7.958;2024-02-26T08:46:47;95272.16;;;8.56;76.65
9281;BME280;4679;47.966;7.958;2024-02-26T08:48:48;95278.19;;;8.61;76.63
9281;BME280;4679;47.966;7.958;2024-02-26T08:50:50;95278.97;;;8.67;76.47
9281;BME280;4679;47.966;7.958;2024-02-26T08:52:52;95275.47;;;8.71;76.21
9281;BME280;4679;47.966;7.958;2024-02-26T08:54:54;95273.63;;;8.72;76.29
9281;BME280;4679;47.966;7.958;2024-02-26T08:56:55;95279.94;;;8.76;76.30
9281;BME280;4679;47.966;7.958;2024-02-26T08:58:57;95277.00;;;8.82;76.09
9281;BME280;4679;47.966;7.958;2024-02-26T09:00:59;95277.44;;;8.90;76.26
9281;BME280;4679;47.966;7.958;2024-02-26T09:03:01;95272.91;;;8.95;76.14
9281;BME280;4679;47.966;7.958;2024-02-26T09:05:02;95271.78;;;9.01;75.77
9281;BME280;4679;47.966;7.958;2024-02-26T09:07:04;95268.03;;;9.07;76.00
9281;BME280;4679;47.966;7.958;2024-02-26T09:09:08;95268.00;;;9.12;75.82
9281;BME280;4679;47.966;7.958;2024-02-26T09:11:09;95273.72;;;9.20;76.20
9281;BME280;4679;47.966;7.958;2024-02-26T09:13:11;95281.09;;;9.23;75.68
9281;BME280;4679;47.966;7.958;2024-02-26T09:15:13;95276.06;;;9.26;75.90
9281;BME280;4679;47.966;7.958;2024-02-26T09:17:13;95282.38;;;9.30;75.79
9281;BME280;4679;47.966;7.958;2024-02-26T09:19:15;95291.31;;;9.34;75.52
9281;BME280;4679;47.966;7.958;2024-02-26T09:21:16;95299.47;;;9.38;75.33
9281;BME280;4679;47.966;7.958;2024-02-26T09:23:23;95301.34;;;9.37;76.50
9281;BME280;4679;47.966;7.958;2024-02-26T09:25:26;95305.56;;;9.38;75.68
9281;BME280;4679;47.966;7.958;2024-02-26T09:27:28;95309.28;;;9.37;76.12
9281;BME280;4679;47.966;7.958;2024-02-26T09:29:31;95300.53;;;9.37;76.00
9281;BME280;4679;47.966;7.958;2024-02-26T09:31:33;95303.19;;;9.37;76.48
9281;BME280;4679;47.966;7.958;2024-02-26T09:33:35;95300.81;;;9.35;76.28
9281;BME280;4679;47.966;7.958;2024-02-26T09:35:36;95306.06;;;9.40;76.10
9281;BME280;4679;47.966;7.958;2024-02-26T09:37:38;95303.38;;;9.45;76.11
9281;BME280;4679;47.966;7.958;2024-02-26T09:39:39;95289.81;;;9.52;76.08
9281;BME280;4679;47.966;7.958;2024-02-26T09:41:44;95303.28;;;9.56;75.35
9281;BME280;4679;47.966;7.958;2024-02-26T09:43:47;95308.00;;;9.59;75.74
9281;BME280;4679;47.966;7.958;2024-02-26T09:45:50;95309.78;;;9.63;75.27
9281;BME280;4679;47.966;7.958;2024-02-26T09:47:51;95299.16;;;9.68;76.37
9281;BME280;4679;47.966;7.958;2024-02-26T09:49:56;95305.41;;;9.77;76.33
9281;BME280;4679;47.966;7.958;2024-02-26T09:51:57;95305.34;;;9.82;75.72
9281;BME280;4679;47.966;7.958;2024-02-26T09:54:02;95310.59;;;9.87;75.64
9281;BME280;4679;47.966;7.958;2024-02-26T09:56:05;95316.91;;;9.92;75.35
9281;BME280;4679;47.966;7.958;2024-02-26T09:58:10;95318.41;;;9.98;75.19
9281;BME280;4679;47.966;7.958;2024-02-26T10:00:18;95318.88;;;10.05;74.55
9281;BME280;4679;47.966;7.958;2024-02-26T10:02:20;95322.81;;;10.07;75.71
9281;BME280;4679;47.966;7.958;2024-02-26T10:04:23;95320.16;;;10.07;74.32
9281;BME280;4679;47.966;7.958;2024-02-26T10:06:26;95330.97;;;10.11;74.81
9281;BME280;4679;47.966;7.958;2024-02-26T10:08:27;95324.31;;;10.13;74.53
9281;BME280;4679;47.966;7.958;2024-02-26T10:10:30;95321.88;;;10.17;74.25
9281;BME280;4679;47.966;7.958;2024-02-26T10:12:32;95327.44;;;10.20;74.82
9281;BME280;4679;47.966;7.958;2024-02-26T10:14:35;95330.50;;;10.28;74.43
9281;BME280;4679;47.966;7.958;2024-02-26T10:16:38;95329.09;;;10.35;75.10
9281;BME280;4679;47.966;7.958;2024-02-26T10:18:46;95331.38;;;10.42;74.82
9281;BME280;4679;47.966;7.958;2024-02-26T10:20:59;95331.81;;;10.49;75.02
9281;BME280;4679;47.966;7.958;2024-02-26T10:23:02;95341.00;;;10.56;74.39
9281;BME280;4679;47.966;7.958;2024-02-26T10:25:05;95337.94;;;10.68;73.42
9281;BME280;4679;47.966;7.958;2024-02-26T10:27:08;95333.13;;;11.03;73.23
9281;BME280;4679;47.966;7.958;2024-02-26T10:29:10;95334.38;;;11.24;72.65
9281;BME280;4679;47.966;7.958;2024-02-26T10:31:14;95330.88;;;11.28;72.41
9281;BME280;4679;47.966;7.958;2024-02-26T10:33:15;95323.59;;;11.34;71.87
9281;BME280;4679;47.966;7.958;2024-02-26T10:35:18;95319.00;;;11.53;72.02
9281;BME280;4679;47.966;7.958;2024-02-26T10:37:21;95325.91;;;11.68;71.63
9281;BME280;4679;47.966;7.958;2024-02-26T10:39:23;95327.31;;;11.79;70.64
9281;BME280;4679;47.966;7.958;2024-02-26T10:41:25;95314.63;;;11.90;70.88
9281;BME280;4679;47.966;7.958;2024-02-26T10:43:25;95321.81;;;11.89;70.19
9281;BME280;4679;47.966;7.958;2024-02-26T10:45:27;95334.28;;;11.75;70.87
9281;BME280;4679;47.966;7.958;2024-02-26T10:47:30;95340.19;;;11.72;71.23
9281;BME280;4679;47.966;7.958;2024-02-26T10:49:34;95349.44;;;11.75;70.47
9281;BME280;4679;47.966;7.958;2024-02-26T10:51:37;95345.28;;;11.69;70.86
9281;BME280;4679;47.966;7.958;2024-02-26T10:53:40;95346.44;;;11.62;71.36
9281;BME280;4679;47.966;7.958;2024-02-26T10:55:47;95345.00;;;11.70;70.74
9281;BME280;4679;47.966;7.958;2024-02-26T10:57:52;95362.25;;;11.86;70.86
9281;BME280;4679;47.966;7.958;2024-02-26T10:59:54;95357.25;;;11.98;70.01
9281;BME280;4679;47.966;7.958;2024-02-26T11:01:57;95360.19;;;12.24;69.80
9281;BME280;4679;47.966;7.958;2024-02-26T11:04:02;95353.66;;;12.44;69.06
9281;BME280;4679;47.966;7.958;2024-02-26T11:06:04;95351.34;;;12.65;69.13
9281;BME280;4679;47.966;7.958;2024-02-26T11:08:06;95350.38;;;12.97;68.10
9281;BME280;4679;47.966;7.958;2024-02-26T11:10:09;95348.25;;;13.08;68.21
9281;BME280;4679;47.966;7.958;2024-02-26T11:12:12;95358.47;;;13.14;67.94
9281;BME280;4679;47.966;7.958;2024-02-26T11:14:15;95356.69;;;13.23;67.82
9281;BME280;4679;47.966;7.958;2024-02-26T11:16:18;95361.41;;;13.26;67.92
9281;BME280;4679;47.966;7.958;2024-02-26T11:18:19;95353.34;;;13.18;67.79
9281;BME280;4679;47.966;7.958;2024-02-26T11:20:25;95348.31;;;12.94;67.83
9281;BME280;4679;47.966;7.958;2024-02-26T11:22:29;95339.75;;;12.83;67.88
9281;BME280;4679;47.966;7.958;2024-02-26T11:24:30;95342.25;;;12.80;67.83
9281;BME280;4679;47.966;7.958;2024-02-26T11:26:34;95342.59;;;12.87;67.34
9281;BME280;4679;47.966;7.958;2024-02-26T11:28:38;95342.38;;;12.97;67.21
9281;BME280;4679;47.966;7.958;2024-02-26T11:30:44;95338.38;;;13.08;66.74
9281;BME280;4679;47.966;7.958;2024-02-26T11:32:47;95339.81;;;13.14;66.77
9281;BME280;4679;47.966;7.958;2024-02-26T11:34:49;95333.84;;;13.09;66.16
9281;BME280;4679;47.966;7.958;2024-02-26T11:36:52;95340.34;;;13.16;66.15
9281;BME280;4679;47.966;7.958;2024-02-26T11:38:54;95332.28;;;13.30;65.48
9281;BME280;4679;47.966;7.958;2024-02-26T11:40:58;95335.97;;;13.43;65.47
9281;BME280;4679;47.966;7.958;2024-02-26T11:42:59;95326.94;;;13.52;64.95
9281;BME280;4679;47.966;7.958;2024-02-26T11:45:01;95318.34;;;13.64;64.68
9281;BME280;4679;47.966;7.958;2024-02-26T11:47:12;95322.78;;;13.68;64.70
9281;BME280;4679;47.966;7.958;2024-02-26T11:49:30;95328.78;;;13.74;64.12
9281;BME280;4679;47.966;7.958;2024-02-26T11:51:33;95328.78;;;13.83;64.01
9281;BME280;4679;47.966;7.958;2024-02-26T11:53:45;95330.69;;;13.91;63.58
9281;BME280;4679;47.966;7.958;2024-02-26T11:55:48;95329.00;;;13.95;63.43
9281;BME280;4679;47.966;7.958;2024-02-26T11:58:09;95331.53;;;14.00;63.30
9281;BME280;4679;47.966;7.958;2024-02-26T12:00:12;95329.34;;;14.02;62.59
9281;BME280;4679;47.966;7.958;2024-02-26T12:02:39;95326.50;;;14.07;62.50
9281;BME280;4679;47.966;7.958;2024-02-26T12:04:40;95325.28;;;14.04;62.31
9281;BME280;4679;47.966;7.958;2024-02-26T12:06:47;95332.16;;;14.05;62.23
9281;BME280;4679;47.966;7.958;2024-02-26T12:08:50;95337.97;;;14.07;62.45
9281;BME280;4679;47.966;7.958;2024-02-26T12:10:54;95325.72;;;14.06;62.10
9281;BME280;4679;47.966;7.958;2024-02-26T12:12:59;95315.41;;;14.14;61.62
9281;BME280;4679;47.966;7.958;2024-02-26T12:15:02;95326.38;;;14.21;61.95
9281;BME280;4679;47.966;7.958;2024-02-26T12:17:04;95336.75;;;14.22;61.59
9281;BME280;4679;47.966;7.958;2024-02-26T12:19:08;95337.53;;;14.23;61.17
9281;BME280;4679;47.966;7.958;2024-02-26T12:21:10;95332.38;;;14.26;60.82
9281;BME280;4679;47.966;7.958;2024-02-26T12:23:14;95339.91;;;14.24;60.78
9281;BME280;4679;47.966;7.958;2024-02-26T12:25:21;95336.13;;;14.17;60.79
9281;BME280;4679;47.966;7.958;2024-02-26T12:27:22;95342.72;;;14.19;60.71
9281;BME280;4679;47.966;7.958;2024-02-26T12:29:24;95336.44;;;14.24;60.69
9281;BME280;4679;47.966;7.958;2024-02-26T12:31:26;95338.38;;;14.32;60.32
9281;BME280;4679;47.966;7.958;2024-02-26T12:33:29;95331.16;;;14.32;60.20
9281;BME280;4679;47.966;7.958;2024-02-26T12:35:32;95336.00;;;14.39;59.56
9281;BME280;4679;47.966;7.958;2024-02-26T12:37:33;95334.97;;;14.57;59.41
9281;BME280;4679;47.966;7.958;2024-02-26T12:39:38;95324.94;;;14.71;58.79
9281;BME280;4679;47.966;7.958;2024-02-26T12:41:41;95332.94;;;14.71;58.93
9281;BME280;4679;47.966;7.958;2024-02-26T12:43:49;95341.59;;;14.77;58.68
9281;BME280;4679;47.966;7.958;2024-02-26T12:45:50;95338.59;;;14.87;58.01
9281;BME280;4679;47.966;7.958;2024-02-26T12:47:51;95339.06;;;14.98;58.17
9281;BME280;4679;47.966;7.958;2024-02-26T12:49:53;95341.75;;;15.06;57.88
9281;BME280;4679;47.966;7.958;2024-02-26T12:51:54;95337.66;;;15.09;57.06
9281;BME280;4679;47.966;7.958;2024-02-26T12:54:01;95334.97;;;15.26;56.79
9281;BME280;4679;47.966;7.958;2024-02-26T12:56:04;95335.91;;;15.30;56.86
9281;BME280;4679;47.966;7.958;2024-02-26T12:58:06;95340.28;;;15.43;56.65
9281;BME280;4679;47.966;7.958;2024-02-26T13:00:12;95336.28;;;15.75;55.76
9281;BME280;4679;47.966;7.958;2024-02-26T13:02:13;95344.25;;;15.93;55.46
9281;BME280;4679;47.966;7.958;2024-02-26T13:04:15;95336.84;;;15.98;55.47
9281;BME280;4679;47.966;7.958;2024-02-26T13:06:18;95341.25;;;15.94;55.26
9281;BME280;4679;47.966;7.958;2024-02-26T13:08:20;95332.78;;;15.92;55.13
9281;BME280;4679;47.966;7.958;2024-02-26T13:10:21;95333.69;;;15.96;55.23
9281;BME280;4679;47.966;7.958;2024-02-26T13:12:23;95332.44;;;16.02;54.85
9281;BME280;4679;47.966;7.958;2024-02-26T13:14:26;95337.53;;;15.78;54.26
9281;BME280;4679;47.966;7.958;2024-02-26T13:16:27;95345.34;;;15.92;54.88
9281;BME280;4679;47.966;7.958;2024-02-26T13:18:29;95340.78;;;16.01;53.91
9281;BME280;4679;47.966;7.958;2024-02-26T13:20:31;95341.69;;;16.05;54.32
9281;BME280;4679;47.966;7.958;2024-02-26T13:22:34;95342.94;;;16.07;53.82
9281;BME280;4679;47.966;7.958;2024-02-26T13:24:36;95341.66;;;16.13;53.45
9281;BME280;4679;47.966;7.958;2024-02-26T13:26:37;95337.31;;;16.00;53.01
9281;BME280;4679;47.966;7.958;2024-02-26T13:28:40;95345.41;;;15.83;53.82
9281;BME280;4679;47.966;7.958;2024-02-26T13:30:50;95344.25;;;15.93;52.87
9281;BME280;4679;47.966;7.958;2024-02-26T13:32:51;95337.47;;;16.04;53.43
9281;BME280;4679;47.966;7.958;2024-02-26T13:35:04;95338.47;;;15.82;53.51
9281;BME280;4679;47.966;7.958;2024-02-26T13:37:05;95335.50;;;15.83;53.72
9281;BME280;4679;47.966;7.958;2024-02-26T13:39:09;95332.97;;;15.87;53.84
9281;BME280;4679;47.966;7.958;2024-02-26T13:41:13;95337.38;;;15.83;53.90
9281;BME280;4679;47.966;7.958;2024-02-26T13:43:14;95343.09;;;15.64;54.72
9281;BME280;4679;47.966;7.958;2024-02-26T13:45:16;95345.63;;;15.52;55.18
9281;BME280;4679;47.966;7.958;2024-02-26T13:47:20;95345.63;;;15.52;54.87
9281;BME280;4679;47.966;7.958;2024-02-26T13:49:22;95344.19;;;15.63;55.56
9281;BME280;4679;47.966;7.958;2024-02-26T13:51:24;95342.16;;;15.60;55.20
9281;BME280;4679;47.966;7.958;2024-02-26T13:53:25;95348.91;;;15.49;55.62
9281;BME280;4679;47.966;7.958;2024-02-26T13:55:27;95345.97;;;15.33;56.28
9281;BME280;4679;47.966;7.958;2024-02-26T13:57:30;95350.22;;;15.26;56.24
9281;BME280;4679;47.966;7.958;2024-02-26T13:59:32;95349.44;;;15.25;56.19
9281;BME280;4679;47.966;7.958;2024-02-26T14:01:34;95347.72;;;15.21;56.72
9281;BME280;4679;47.966;7.958;2024-02-26T14:03:37;95344.13;;;15.08;57.10
9281;BME280;4679;47.966;7.958;2024-02-26T14:05:38;95342.09;;;14.96;57.75
9281;BME280;4679;47.966;7.958;2024-02-26T14:07:41;95338.59;;;15.04;57.29
9281;BME280;4679;47.966;7.958;2024-02-26T14:09:42;95342.03;;;15.13;57.44
9281;BME280;4679;47.966;7.958;2024-02-26T14:11:44;95340.78;;;15.20;56.99
9281;BME280;4679;47.966;7.958;2024-02-26T14:13:46;95336.22;;;15.37;57.61
9281;BME280;4679;47.966;7.958;2024-02-26T14:15:48;95334.63;;;15.45;57.03
9281;BME280;4679;47.966;7.958;2024-02-26T14:17:49;95344.22;;;15.37;57.42
9281;BME280;4679;47.966;7.958;2024-02-26T14:19:56;95349.59;;;15.03;58.16
9281;BME280;4679;47.966;7.958;2024-02-26T14:21:56;95338.91;;;14.68;59.07
9281;BME280;4679;47.966;7.958;2024-02-26T14:23:58;95337.97;;;14.64;59.37
9281;BME280;4679;47.966;7.958;2024-02-26T14:25:58;95333.88;;;14.58;59.82
9281;BME280;4679;47.966;7.958;2024-02-26T14:28:01;95333.13;;;14.66;59.50
9281;BME280;4679;47.966;7.958;2024-02-26T14:30:02;95339.25;;;14.75;59.47
9281;BME280;4679;47.966;7.958;2024-02-26T14:32:05;95337.19;;;14.90;59.14
9281;BME280;4679;47.966;7.958;2024-02-26T14:34:07;95338.59;;;15.04;58.79
9281;BME280;4679;47.966;7.958;2024-02-26T14:36:11;95343.00;;;15.09;58.78
9281;BME280;4679;47.966;7.958;2024-02-26T14:38:12;95347.44;;;14.96;58.61
9281;BME280;4679;47.966;7.958;2024-02-26T14:40:14;95335.94;;;14.96;59.12
9281;BME280;4679;47.966;7.958;2024-02-26T14:42:16;95345.66;;;15.00;59.35
9281;BME280;4679;47.966;7.958;2024-02-26T14:44:18;95353.38;;;15.02;59.68
9281;BME280;4679;47.966;7.958;2024-02-26T14:46:19;95346.94;;;15.03;59.67
9281;BME280;4679;47.966;7.958;2024-02-26T14:48:21;95351.31;;;14.99;59.43
9281;BME280;4679;47.966;7.958;2024-02-26T14:50:22;95349.16;;;14.92;60.11
9281;BME280;4679;47.966;7.958;2024-02-26T14:52:25;95348.34;;;14.83;60.06
9281;BME280;4679;47.966;7.958;2024-02-26T14:54:27;95349.31;;;14.78;59.83
9281;BME280;4679;47.966;7.958;2024-02-26T14:56:30;95350.22;;;14.65;60.42
9281;BME280;4679;47.966;7.958;2024-02-26T14:58:31;95352.91;;;14.65;60.26
9281;BME280;4679;47.966;7.958;2024-02-26T15:02:35;95351.31;;;14.47;60.83
9281;BME280;4679;47.966;7.958;2024-02-26T15:04:37;95358.66;;;14.41;60.61
9281;BME280;4679;47.966;7.958;2024-02-26T15:06:38;95355.47;;;14.39;60.89
9281;BME280;4679;47.966;7.958;2024-02-26T15:08:41;95363.84;;;14.47;60.94
9281;BME280;4679;47.966;7.958;2024-02-26T15:10:42;95367.00;;;14.49;60.27
9281;BME280;4679;47.966;7.958;2024-02-26T15:12:48;95375.00;;;14.49;60.68
9281;BME280;4679;47.966;7.958;2024-02-26T15:14:50;95360.91;;;14.65;60.40
9281;BME280;4679;47.966;7.958;2024-02-26T15:16:52;95371.59;;;14.83;60.34
9281;BME280;4679;47.966;7.958;2024-02-26T15:18:54;95365.00;;;14.97;59.48
9281;BME280;4679;47.966;7.958;2024-02-26T15:20:55;95373.34;;;15.04;59.27
9281;BME280;4679;47.966;7.958;2024-02-26T15:22:57;95371.63;;;15.08;59.55
9281;BME280;4679;47.966;7.958;2024-02-26T15:25:00;95367.03;;;15.18;59.66
9281;BME280;4679;47.966;7.958;2024-02-26T15:27:02;95368.94;;;15.17;59.79
9281;BME280;4679;47.966;7.958;2024-02-26T15:29:03;95374.44;;;15.03;59.43
9281;BME280;4679;47.966;7.958;2024-02-26T15:31:05;95371.91;;;14.90;59.69
9281;BME280;4679;47.966;7.958;2024-02-26T15:33:06;95375.03;;;14.83;60.28
9281;BME280;4679;47.966;7.958;2024-02-26T15:35:09;95373.81;;;14.89;60.32
9281;BME280;4679;47.966;7.958;2024-02-26T15:37:11;95379.59;;;14.83;60.14
9281;BME280;4679;47.966;7.958;2024-02-26T15:39:13;95374.44;;;14.77;60.00
9281;BME280;4679;47.966;7.958;2024-02-26T15:41:16;95376.31;;;14.86;60.10
9281;BME280;4679;47.966;7.958;2024-02-26T15:43:17;95388.09;;;14.85;59.83
9281;BME280;4679;47.966;7.958;2024-02-26T15:45:21;95392.03;;;14.78;59.90
9281;BME280;4679;47.966;7.958;2024-02-26T15:47:22;95389.34;;;14.78;60.66
9281;BME280;4679;47.966;7.958;2024-02-26T15:49:23;95392.31;;;14.68;60.09
9281;BME280;4679;47.966;7.958;2024-02-26T15:51:25;95400.59;;;14.50;60.63
9281;BME280;4679;47.966;7.958;2024-02-26T15:53:27;95397.94;;;14.50;60.36
9281;BME280;4679;47.966;7.958;2024-02-26T15:55:29;95404.50;;;14.52;60.63
9281;BME280;4679;47.966;7.958;2024-02-26T15:57:32;95402.47;;;14.49;60.10
9281;BME280;4679;47.966;7.958;2024-02-26T15:59:33;95402.13;;;14.42;60.11
9281;BME280;4679;47.966;7.958;2024-02-26T16:01:35;95410.59;;;14.35;60.12
9281;BME280;4679;47.966;7.958;2024-02-26T16:03:37;95411.16;;;14.24;59.99
9281;BME280;4679;47.966;7.958;2024-02-26T16:05:39;95418.81;;;14.17;59.65
9281;BME280;4679;47.966;7.958;2024-02-26T16:07:43;95425.97;;;14.07;59.62
9281;BME280;4679;47.966;7.958;2024-02-26T16:09:50;95428.25;;;13.92;59.36
9281;BME280;4679;47.966;7.958;2024-02-26T16:11:55;95431.69;;;13.84;59.52
9281;BME280;4679;47.966;7.958;2024-02-26T16:14:03;95430.38;;;13.72;59.09
9281;BME280;4679;47.966;7.958;2024-02-26T16:16:12;95430.78;;;13.66;59.28
9281;BME280;4679;47.966;7.958;2024-02-26T16:18:15;95441.09;;;13.59;58.73
9281;BME280;4679;47.966;7.958;2024-02-26T16:20:18;95442.59;;;13.51;58.78
9281;BME280;4679;47.966;7.958;2024-02-26T16:22:20;95441.75;;;13.42;58.60
9281;BME280;4679;47.966;7.958;2024-02-26T16:24:22;95444.94;;;13.30;58.59
9281;BME280;4679;47.966;7.958;2024-02-26T16:26:24;95450.41;;;13.25;58.47
9281;BME280;4679;47.966;7.958;2024-02-26T16:28:25;95462.25;;;13.19;58.04
9281;BME280;4679;47.966;7.958;2024-02-26T16:30:28;95458.41;;;13.12;58.21
9281;BME280;4679;47.966;7.958;2024-02-26T16:32:32;95457.13;;;13.09;58.17
9281;BME280;4679;47.966;7.958;2024-02-26T16:34:34;95467.28;;;13.07;57.77
9281;BME280;4679;47.966;7.958;2024-02-26T16:36:34;95470.53;;;13.04;57.71
9281;BME280;4679;47.966;7.958;2024-02-26T16:38:36;95479.13;;;13.01;57.93
9281;BME280;4679;47.966;7.958;2024-02-26T16:40:40;95469.88;;;12.98;57.56
9281;BME280;4679;47.966;7.958;2024-02-26T16:42:42;95472.63;;;12.93;57.50
9281;BME280;4679;47.966;7.958;2024-02-26T16:44:43;95476.97;;;12.89;57.52
9281;BME280;4679;47.966;7.958;2024-02-26T16:46:46;95482.09;;;12.86;57.48
9281;BME280;4679;47.966;7.958;2024-02-26T16:48:48;95479.56;;;12.81;57.42
9281;BME280;4679;47.966;7.958;2024-02-26T16:50:52;95484.97;;;12.76;57.12
9281;BME280;4679;47.966;7.958;2024-02-26T16:52:54;95481.63;;;12.70;57.41
9281;BME280;4679;47.966;7.958;2024-02-26T16:54:56;95485.19;;;12.65;57.03
9281;BME280;4679;47.966;7.958;2024-02-26T16:56:57;95499.19;;;12.57;57.51
9281;BME280;4679;47.966;7.958;2024-02-26T16:58:59;95495.06;;;12.51;57.49
9281;BME280;4679;47.966;7.958;2024-02-26T17:01:00;95489.31;;;12.44;57.38
9281;BME280;4679;47.966;7.958;2024-02-26T17:03:04;95489.41;;;12.39;57.14
9281;BME280;4679;47.966;7.958;2024-02-26T17:05:05;95496.72;;;12.33;57.25
9281;BME280;4679;47.966;7.958;2024-02-26T17:07:07;95504.28;;;12.26;57.13
9281;BME280;4679;47.966;7.958;2024-02-26T17:09:10;95502.50;;;12.22;57.22
9281;BME280;4679;47.966;7.958;2024-02-26T17:11:12;95510.56;;;12.17;57.09
9281;BME280;4679;47.966;7.958;2024-02-26T17:13:13;95514.38;;;12.11;56.65
9281;BME280;4679;47.966;7.958;2024-02-26T17:15:15;95521.97;;;12.04;57.28
9281;BME280;4679;47.966;7.958;2024-02-26T17:17:17;95525.28;;;11.95;57.26
9281;BME280;4679;47.966;7.958;2024-02-26T17:19:20;95526.97;;;11.91;56.65
9281;BME280;4679;47.966;7.958;2024-02-26T17:21:22;95527.81;;;11.87;56.41
9281;BME280;4679;47.966;7.958;2024-02-26T17:23:24;95534.50;;;11.84;56.45
9281;BME280;4679;47.966;7.958;2024-02-26T17:25:27;95535.06;;;11.81;57.40
9281;BME280;4679;47.966;7.958;2024-02-26T17:27:28;95530.06;;;11.80;56.64
9281;BME280;4679;47.966;7.958;2024-02-26T17:29:30;95538.66;;;11.72;57.14
9281;BME280;4679;47.966;7.958;2024-02-26T17:31:31;95534.78;;;11.64;57.21
9281;BME280;4679;47.966;7.958;2024-02-26T17:33:35;95543.63;;;11.59;56.86
9281;BME280;4679;47.966;7.958;2024-02-26T17:35:37;95541.25;;;11.58;56.65
9281;BME280;4679;47.966;7.958;2024-02-26T17:37:39;95550.88;;;11.54;56.56
9281;BME280;4679;47.966;7.958;2024-02-26T17:39:41;95550.75;;;11.45;57.11
9281;BME280;4679;47.966;7.958;2024-02-26T17:41:42;95555.09;;;11.36;57.11
9281;BME280;4679;47.966;7.958;2024-02-26T17:43:44;95551.44;;;11.32;56.93
9281;BME280;4679;47.966;7.958;2024-02-26T17:45:45;95550.44;;;11.28;57.34
9281;BME280;4679;47.966;7.958;2024-02-26T17:47:47;95556.38;;;11.20;57.25
9281;BME280;4679;47.966;7.958;2024-02-26T17:49:51;95569.50;;;11.11;57.14
9281;BME280;4679;47.966;7.958;2024-02-26T17:51:53;95569.63;;;11.01;56.99
9281;BME280;4679;47.966;7.958;2024-02-26T17:53:54;95574.50;;;10.94;57.21
9281;BME280;4679;47.966;7.958;2024-02-26T17:55:56;95572.69;;;10.89;57.72
9281;BME280;4679;47.966;7.958;2024-02-26T17:58:00;95577.28;;;10.84;58.33
9281;BME280;4679;47.966;7.958;2024-02-26T18:00:03;95583.97;;;10.76;57.41
9281;BME280;4679;47.966;7.958;2024-02-26T18:02:05;95581.16;;;10.68;57.69
9281;BME280;4679;47.966;7.958;2024-02-26T18:04:07;95588.38;;;10.62;58.51
9281;BME280;4679;47.966;7.958;2024-02-26T18:06:09;95594.00;;;10.55;59.01
9281;BME280;4679;47.966;7.958;2024-02-26T18:08:12;95595.94;;;10.50;58.71
9281;BME280;4679;47.966;7.958;2024-02-26T18:10:13;95596.00;;;10.40;58.22
9281;BME280;4679;47.966;7.958;2024-02-26T18:12:15;95598.00;;;10.24;58.64
9281;BME280;4679;47.966;7.958;2024-02-26T18:14:16;95598.59;;;10.16;59.03
9281;BME280;4679;47.966;7.958;2024-02-26T18:16:17;95602.34;;;10.10;59.30
9281;BME280;4679;47.966;7.958;2024-02-26T18:18:19;95600.56;;;10.00;59.58
9281;BME280;4679;47.966;7.958;2024-02-26T18:20:20;95604.31;;;9.94;59.73
9281;BME280;4679;47.966;7.958;2024-02-26T18:22:22;95607.81;;;9.90;59.94
9281;BME280;4679;47.966;7.958;2024-02-26T18:24:26;95615.78;;;9.84;60.06
9281;BME280;4679;47.966;7.958;2024-02-26T18:26:27;95611.31;;;9.80;60.77